Time;durP1;ratioP1;P1;durP2;ratioP2;P2;SDS_P1;SDS_P2;PMS_P1;PMS_P2;Temp;Humidity;BMP_temperature;BMP_pressure;BME280_temperature;BME280_humidity;BME280_pressure;Samples;Min_cycle;Max_cycle;Signal;HPM_P1;HPM_P2
2023/08/06 00:01:40;;;;;;;9.05;7.10;;;;;;;;;;5073185;28;20040;-73
2023/08/06 00:04:08;;;;;;;11.38;7.65;;;;;;;;;;5055096;28;20040;-73
2023/08/06 00:06:35;;;;;;;9.20;6.80;;;;;;;;;;5055249;28;20120;-74
2023/08/06 00:09:03;;;;;;;11.52;7.60;;;;;;;;;;5073021;28;20037;-71
2023/08/06 00:11:30;;;;;;;14.32;7.38;;;;;;;;;;5073013;28;20045;-71
2023/08/06 00:13:58;;;;;;;10.25;7.38;;;;;;;;;;5072705;28;20047;-72
2023/08/06 00:16:25;;;;;;;11.18;7.07;;;;;;;;;;5072878;28;20093;-72
2023/08/06 00:18:53;;;;;;;9.43;7.70;;;;;;;;;;5072920;28;20053;-72
2023/08/06 00:21:22;;;;;;;8.60;7.40;;;;;;;;;;5072829;28;20108;-72
2023/08/06 00:23:52;;;;;;;11.15;8.25;;;;;;;;;;5072708;28;20049;-72
2023/08/06 00:26:19;;;;;;;9.60;7.90;;;;;;;;;;5072804;28;20051;-72
2023/08/06 00:28:47;;;;;;;10.18;7.90;;;;;;;;;;5072687;28;20043;-71
2023/08/06 00:31:14;;;;;;;11.68;7.70;;;;;;;;;;5054821;28;20048;-73
2023/08/06 00:33:42;;;;;;;9.25;8.02;;;;;;;;;;5055199;28;20693;-72
2023/08/06 00:36:11;;;;;;;11.75;7.65;;;;;;;;;;5054567;28;20050;-72
2023/08/06 00:38:39;;;;;;;10.73;7.95;;;;;;;;;;5054694;28;20060;-73
2023/08/06 00:41:06;;;;;;;14.10;8.05;;;;;;;;;;5054974;28;20048;-73
2023/08/06 00:43:34;;;;;;;11.38;7.60;;;;;;;;;;5038149;28;20112;-73
2023/08/06 00:46:02;;;;;;;10.63;7.68;;;;;;;;;;5054503;28;20113;-73
2023/08/06 00:48:30;;;;;;;9.88;7.85;;;;;;;;;;5054616;28;20048;-73
2023/08/06 00:50:58;;;;;;;10.70;8.63;;;;;;;;;;5072469;28;20040;-73
2023/08/06 00:53:26;;;;;;;10.32;8.45;;;;;;;;;;5054551;28;20436;-73
2023/08/06 00:55:53;;;;;;;10.10;8.55;;;;;;;;;;5054502;28;20037;-73
2023/08/06 00:58:21;;;;;;;9.65;8.65;;;;;;;;;;5054307;28;20044;-73
2023/08/06 01:00:48;;;;;;;12.63;8.55;;;;;;;;;;5054315;28;20055;-72
2023/08/06 01:03:16;;;;;;;10.27;7.90;;;;;;;;;;5070858;28;20538;-73
2023/08/06 01:05:44;;;;;;;14.52;9.98;;;;;;;;;;5054125;28;20075;-72
2023/08/06 01:08:31;;;;;;;11.23;8.82;;;;;;;;;;5072319;28;20064;-72
2023/08/06 01:10:58;;;;;;;10.15;8.45;;;;;;;;;;5054171;28;20432;-72
2023/08/06 01:13:58;;;;;;;11.75;8.18;;;;;;;;;;5072338;28;20043;-72
2023/08/06 01:16:26;;;;;;;11.40;8.43;;;;;;;;;;5023723;28;20037;-72
2023/08/06 01:18:54;;;;;;;12.98;8.57;;;;;;;;;;5058486;28;20555;-72
2023/08/06 01:21:21;;;;;;;13.57;8.60;;;;;;;;;;5041994;28;20067;-72
2023/08/06 01:23:49;;;;;;;11.90;8.90;;;;;;;;;;5058272;28;20048;-72
2023/08/06 01:26:24;;;;;;;10.32;8.90;;;;;;;;;;5058173;28;20581;-72
2023/08/06 01:29:12;;;;;;;13.20;8.75;;;;;;;;;;5074900;28;20075;-72
2023/08/06 01:31:40;;;;;;;14.32;8.95;;;;;;;;;;5045019;28;20053;-73
2023/08/06 01:34:10;;;;;;;12.32;8.50;;;;;;;;;;5076412;28;20032;-72
2023/08/06 01:36:38;;;;;;;12.10;8.77;;;;;;;;;;5057931;28;20132;-71
2023/08/06 01:39:06;;;;;;;12.23;9.00;;;;;;;;;;5075920;28;20532;-72
2023/08/06 01:41:33;;;;;;;13.07;9.48;;;;;;;;;;5057950;28;20044;-71
2023/08/06 01:44:01;;;;;;;9.98;8.93;;;;;;;;;;5076106;28;20391;-71
2023/08/06 01:46:28;;;;;;;13.57;9.20;;;;;;;;;;5057768;28;20102;-71
2023/08/06 01:48:56;;;;;;;10.98;8.27;;;;;;;;;;5057794;28;20067;-71
2023/08/06 01:51:23;;;;;;;12.80;9.07;;;;;;;;;;5057730;28;20063;-71
2023/08/06 01:53:51;;;;;;;14.38;9.10;;;;;;;;;;5057663;28;20483;-72
2023/08/06 01:56:18;;;;;;;10.10;8.95;;;;;;;;;;5074302;28;20060;-72
2023/08/06 01:58:46;;;;;;;10.73;8.45;;;;;;;;;;5057460;28;20470;-72
2023/08/06 02:01:14;;;;;;;10.93;8.80;;;;;;;;;;5057987;28;20139;-73
2023/08/06 02:03:41;;;;;;;13.32;9.57;;;;;;;;;;5057604;28;20436;-72
2023/08/06 02:06:10;;;;;;;10.73;8.68;;;;;;;;;;5057409;28;20049;-72
2023/08/06 02:08:38;;;;;;;14.82;9.38;;;;;;;;;;5057553;28;20040;-72
2023/08/06 02:11:06;;;;;;;10.07;9.00;;;;;;;;;;5057707;28;20577;-71
2023/08/06 02:13:34;;;;;;;21.23;9.48;;;;;;;;;;5057067;28;20060;-73
2023/08/06 02:16:02;;;;;;;8.80;5.63;;;;;;;;;;5074056;28;20078;-74
2023/08/06 02:18:30;;;;;;;5.43;4.13;;;;;;;;;;5074841;28;20053;-73
2023/08/06 02:20:58;;;;;;;5.38;2.90;;;;;;;;;;5075170;28;20405;-73
2023/08/06 02:23:26;;;;;;;8.95;3.05;;;;;;;;;;5057193;28;20049;-73
2023/08/06 02:26:00;;;;;;;3.95;2.63;;;;;;;;;;5056874;28;20072;-74
2023/08/06 02:28:28;;;;;;;6.47;2.50;;;;;;;;;;5074399;28;20126;-73
2023/08/06 02:30:55;;;;;;;3.95;2.38;;;;;;;;;;5057082;28;20044;-72
2023/08/06 02:33:23;;;;;;;3.38;2.38;;;;;;;;;;5057060;28;20056;-73
2023/08/06 02:35:51;;;;;;;3.58;2.58;;;;;;;;;;5057184;28;20048;-73
2023/08/06 02:38:18;;;;;;;4.32;2.35;;;;;;;;;;5056813;28;20049;-73
2023/08/06 02:40:46;;;;;;;5.22;2.53;;;;;;;;;;5075032;28;20075;-73
2023/08/06 02:43:14;;;;;;;4.28;2.72;;;;;;;;;;5056941;28;20044;-73
2023/08/06 02:45:42;;;;;;;6.28;2.55;;;;;;;;;;5056989;28;20052;-73
2023/08/06 02:48:10;;;;;;;5.05;2.40;;;;;;;;;;5056968;28;20047;-73
2023/08/06 02:50:41;;;;;;;5.95;2.42;;;;;;;;;;5056893;28;20494;-73
2023/08/06 02:53:09;;;;;;;7.18;2.60;;;;;;;;;;5056740;28;20045;-73
2023/08/06 02:55:38;;;;;;;5.93;3.30;;;;;;;;;;5056630;28;20056;-73
2023/08/06 02:58:12;;;;;;;4.35;2.35;;;;;;;;;;5056791;28;20577;-73
2023/08/06 03:00:45;;;;;;;3.58;2.30;;;;;;;;;;5056203;28;20040;-72
2023/08/06 03:03:15;;;;;;;6.47;2.13;;;;;;;;;;5056061;28;20033;-73
2023/08/06 03:05:54;;;;;;;6.70;2.50;;;;;;;;;;5056780;28;20072;-71
2023/08/06 03:08:32;;;;;;;5.15;2.20;;;;;;;;;;5056491;28;20037;-72
2023/08/06 03:11:00;;;;;;;4.15;2.20;;;;;;;;;;5056549;28;20049;-69
2023/08/06 03:13:28;;;;;;;3.45;2.30;;;;;;;;;;5074322;28;20037;-72
2023/08/06 03:15:57;;;;;;;4.32;2.00;;;;;;;;;;5056287;28;20059;-72
2023/08/06 03:18:26;;;;;;;2.78;2.03;;;;;;;;;;5056145;28;20406;-71
2023/08/06 03:20:56;;;;;;;3.92;2.35;;;;;;;;;;5056038;28;20048;-71
2023/08/06 03:23:27;;;;;;;3.15;2.30;;;;;;;;;;5072829;28;20397;-72
2023/08/06 03:25:55;;;;;;;5.38;2.60;;;;;;;;;;5056007;28;20362;-71
2023/08/06 03:28:23;;;;;;;5.30;2.47;;;;;;;;;;5056262;28;20036;-72
2023/08/06 03:30:59;;;;;;;2.72;2.00;;;;;;;;;;5055932;28;20049;-72
2023/08/06 03:33:27;;;;;;;5.18;2.65;;;;;;;;;;5055881;28;20051;-72
2023/08/06 03:35:56;;;;;;;5.68;2.50;;;;;;;;;;5056022;28;20094;-72
2023/08/06 03:38:24;;;;;;;3.97;2.40;;;;;;;;;;5055987;28;20045;-72
2023/08/06 03:40:53;;;;;;;4.72;2.40;;;;;;;;;;5054768;28;20482;-72
2023/08/06 03:43:21;;;;;;;3.40;2.28;;;;;;;;;;5055835;28;20055;-72
2023/08/06 03:45:48;;;;;;;3.20;2.20;;;;;;;;;;5073513;28;20394;-71
2023/08/06 03:48:16;;;;;;;5.38;2.30;;;;;;;;;;5055732;28;20041;-71
2023/08/06 03:50:43;;;;;;;3.85;2.50;;;;;;;;;;5055799;28;20398;-71
2023/08/06 03:53:14;;;;;;;4.07;2.20;;;;;;;;;;5055598;28;20596;-71
2023/08/06 03:55:41;;;;;;;3.30;2.20;;;;;;;;;;5055587;28;20128;-71
2023/08/06 03:58:09;;;;;;;3.13;2.30;;;;;;;;;;5055582;28;20052;-71
2023/08/06 04:00:36;;;;;;;4.03;2.53;;;;;;;;;;5055463;28;20053;-72
2023/08/06 04:03:04;;;;;;;4.57;2.60;;;;;;;;;;5055519;28;20087;-71
2023/08/06 04:05:33;;;;;;;9.32;2.50;;;;;;;;;;5073260;28;20099;-71
2023/08/06 04:08:00;;;;;;;4.05;2.65;;;;;;;;;;5073173;28;20119;-72
2023/08/06 04:10:28;;;;;;;4.88;2.25;;;;;;;;;;5055385;28;20488;-71
2023/08/06 04:12:55;;;;;;;3.50;2.42;;;;;;;;;;5055307;28;20493;-72
2023/08/06 04:15:23;;;;;;;4.55;2.60;;;;;;;;;;5055257;28;20040;-72
2023/08/06 04:17:50;;;;;;;5.60;2.40;;;;;;;;;;5055611;28;20394;-71
2023/08/06 04:20:18;;;;;;;4.13;2.45;;;;;;;;;;5055107;28;20417;-71
2023/08/06 04:22:45;;;;;;;5.00;2.80;;;;;;;;;;5073041;28;20119;-71
2023/08/06 04:25:13;;;;;;;3.97;2.42;;;;;;;;;;5054902;28;20127;-71
2023/08/06 04:27:41;;;;;;;3.30;2.05;;;;;;;;;;5055241;28;20402;-72
2023/08/06 04:30:12;;;;;;;5.18;2.15;;;;;;;;;;5054957;28;20040;-72
2023/08/06 04:32:41;;;;;;;4.70;2.40;;;;;;;;;;5054936;28;20506;-72
2023/08/06 04:35:08;;;;;;;5.32;2.33;;;;;;;;;;5054973;28;20071;-72
2023/08/06 04:37:37;;;;;;;4.10;1.92;;;;;;;;;;5054854;28;20048;-72
2023/08/06 04:40:05;;;;;;;3.83;2.10;;;;;;;;;;5054959;28;20064;-72
2023/08/06 04:42:32;;;;;;;4.30;2.15;;;;;;;;;;5054777;28;20115;-73
2023/08/06 04:45:01;;;;;;;5.82;2.25;;;;;;;;;;5071376;28;20070;-72
2023/08/06 04:47:29;;;;;;;3.38;2.13;;;;;;;;;;5054921;28;20546;-72
2023/08/06 04:49:56;;;;;;;5.25;2.30;;;;;;;;;;5072543;28;20502;-71
2023/08/06 04:52:27;;;;;;;5.15;2.00;;;;;;;;;;5072287;28;20478;-71
2023/08/06 04:54:55;;;;;;;3.80;2.03;;;;;;;;;;5072650;28;20076;-71
2023/08/06 04:57:22;;;;;;;5.43;2.55;;;;;;;;;;5072541;28;20043;-71
2023/08/06 04:59:50;;;;;;;3.30;1.73;;;;;;;;;;5072377;28;20049;-72
2023/08/06 05:02:19;;;;;;;5.38;2.30;;;;;;;;;;5072808;28;20421;-71
2023/08/06 05:04:46;;;;;;;3.85;2.10;;;;;;;;;;5072580;28;20111;-71
2023/08/06 05:07:14;;;;;;;3.58;2.10;;;;;;;;;;5072382;28;20126;-71
2023/08/06 05:09:41;;;;;;;4.55;2.08;;;;;;;;;;5072511;28;20117;-72
2023/08/06 05:12:09;;;;;;;5.30;2.25;;;;;;;;;;5072465;28;20041;-71
2023/08/06 05:14:37;;;;;;;3.97;2.13;;;;;;;;;;5072425;28;20048;-72
2023/08/06 05:17:04;;;;;;;2.17;1.83;;;;;;;;;;5072488;28;20036;-70
2023/08/06 05:19:32;;;;;;;3.67;2.00;;;;;;;;;;5072410;28;20041;-71
2023/08/06 05:22:00;;;;;;;2.47;1.90;;;;;;;;;;5072309;28;20456;-72
2023/08/06 05:24:28;;;;;;;4.35;2.00;;;;;;;;;;5072419;28;20072;-71
2023/08/06 05:26:55;;;;;;;3.92;1.92;;;;;;;;;;5072186;28;20048;-71
2023/08/06 05:29:23;;;;;;;3.97;2.00;;;;;;;;;;5072415;28;20047;-71
2023/08/06 05:31:50;;;;;;;4.72;2.15;;;;;;;;;;5072273;28;20494;-71
2023/08/06 05:34:18;;;;;;;3.22;2.03;;;;;;;;;;5072173;28;20121;-71
2023/08/06 05:36:46;;;;;;;4.07;1.77;;;;;;;;;;5072200;28;20490;-71
2023/08/06 05:39:13;;;;;;;4.60;2.30;;;;;;;;;;5072182;28;20047;-72
2023/08/06 05:41:41;;;;;;;3.72;2.20;;;;;;;;;;5072290;28;20090;-72
2023/08/06 05:44:08;;;;;;;4.55;2.00;;;;;;;;;;5072038;28;20482;-72
2023/08/06 05:46:36;;;;;;;3.25;2.10;;;;;;;;;;5072020;28;20041;-72
2023/08/06 05:49:04;;;;;;;5.40;2.03;;;;;;;;;;5072174;28;20037;-72
2023/08/06 05:51:32;;;;;;;2.95;1.73;;;;;;;;;;5072134;28;20482;-73
2023/08/06 05:54:00;;;;;;;3.10;2.08;;;;;;;;;;5072030;28;20047;-73
2023/08/06 05:56:27;;;;;;;3.55;2.10;;;;;;;;;;5072047;28;20045;-72
2023/08/06 05:58:54;;;;;;;5.55;2.00;;;;;;;;;;5071878;28;20068;-72
2023/08/06 06:01:23;;;;;;;3.40;1.85;;;;;;;;;;5071916;28;20528;-72
2023/08/06 06:03:50;;;;;;;3.28;2.20;;;;;;;;;;5056211;28;20148;-73
2023/08/06 06:06:18;;;;;;;3.35;2.20;;;;;;;;;;5075497;28;20048;-72
2023/08/06 06:08:46;;;;;;;5.57;2.55;;;;;;;;;;5075659;28;20040;-72
2023/08/06 06:11:13;;;;;;;6.00;2.10;;;;;;;;;;5075567;28;20086;-73
2023/08/06 06:13:41;;;;;;;4.60;2.30;;;;;;;;;;5075541;28;20044;-72
2023/08/06 06:16:08;;;;;;;5.10;2.40;;;;;;;;;;5075447;28;20056;-72
2023/08/06 06:18:36;;;;;;;4.95;2.30;;;;;;;;;;5075213;28;20544;-72
2023/08/06 06:21:03;;;;;;;3.78;2.20;;;;;;;;;;5075446;28;20048;-72
2023/08/06 06:23:31;;;;;;;5.00;2.22;;;;;;;;;;5075274;28;20042;-72
2023/08/06 06:25:58;;;;;;;3.92;2.33;;;;;;;;;;5075088;28;20040;-72
2023/08/06 06:28:25;;;;;;;5.80;2.13;;;;;;;;;;5075555;28;20481;-72
2023/08/06 06:30:53;;;;;;;4.28;3.67;;;;;;;;;;5075146;28;20040;-72
2023/08/06 06:33:20;;;;;;;6.03;2.58;;;;;;;;;;5075246;28;20041;-73
2023/08/06 06:35:48;;;;;;;4.57;2.80;;;;;;;;;;5075001;28;20131;-72
2023/08/06 06:38:15;;;;;;;4.30;2.45;;;;;;;;;;5075102;28;20055;-73
2023/08/06 06:40:44;;;;;;;6.35;2.38;;;;;;;;;;5075104;28;20406;-73
2023/08/06 06:43:11;;;;;;;4.97;2.80;;;;;;;;;;5075257;28;20032;-72
2023/08/06 06:45:39;;;;;;;6.10;2.65;;;;;;;;;;5074899;28;20509;-72
2023/08/06 06:48:06;;;;;;;8.77;3.20;;;;;;;;;;5074912;28;20048;-72
2023/08/06 06:50:36;;;;;;;7.32;3.63;;;;;;;;;;5074938;28;20090;-72
2023/08/06 06:53:03;;;;;;;5.07;3.60;;;;;;;;;;5074869;28;20036;-73
2023/08/06 06:55:31;;;;;;;7.25;3.72;;;;;;;;;;5074781;28;20040;-72
2023/08/06 06:57:58;;;;;;;7.43;4.07;;;;;;;;;;5074766;28;20047;-72
2023/08/06 07:00:26;;;;;;;5.05;4.05;;;;;;;;;;5074491;28;20066;-72
2023/08/06 07:02:53;;;;;;;5.78;3.80;;;;;;;;;;5074709;28;20486;-73
2023/08/06 07:05:21;;;;;;;8.20;4.22;;;;;;;;;;5056647;28;20139;-73
2023/08/06 07:07:48;;;;;;;12.55;5.95;;;;;;;;;;5074484;28;20047;-71
2023/08/06 07:10:16;;;;;;;10.23;8.25;;;;;;;;;;5074359;28;20051;-71
2023/08/06 07:12:43;;;;;;;8.60;4.63;;;;;;;;;;5074165;28;20044;-71
2023/08/06 07:15:11;;;;;;;6.25;3.95;;;;;;;;;;5074180;28;20119;-71
2023/08/06 07:17:38;;;;;;;8.65;5.28;;;;;;;;;;5074287;28;20037;-72
2023/08/06 07:20:06;;;;;;;12.93;5.38;;;;;;;;;;5074222;28;20044;-71
2023/08/06 07:22:34;;;;;;;9.93;5.60;;;;;;;;;;5074320;28;20048;-72
2023/08/06 07:25:01;;;;;;;7.70;5.45;;;;;;;;;;5074023;28;20068;-72
2023/08/06 07:27:29;;;;;;;10.98;5.88;;;;;;;;;;5074118;28;20048;-72
2023/08/06 07:29:58;;;;;;;11.10;6.38;;;;;;;;;;5074020;28;20033;-72
2023/08/06 07:32:25;;;;;;;9.50;6.20;;;;;;;;;;5074078;28;20123;-72
2023/08/06 07:34:56;;;;;;;7.53;5.30;;;;;;;;;;5074302;28;20086;-72
2023/08/06 07:37:24;;;;;;;9.82;5.15;;;;;;;;;;5073813;28;20114;-72
2023/08/06 07:39:51;;;;;;;10.48;5.78;;;;;;;;;;5073839;28;20551;-72
2023/08/06 07:42:20;;;;;;;5.57;4.80;;;;;;;;;;5073795;28;20051;-72
2023/08/06 07:44:52;;;;;;;8.77;5.15;;;;;;;;;;5074030;28;20076;-71
2023/08/06 07:47:20;;;;;;;7.22;4.80;;;;;;;;;;5073733;28;20037;-71
2023/08/06 07:49:47;;;;;;;30.10;25.58;;;;;;;;;;5073675;28;20045;-72
2023/08/06 07:52:15;;;;;;;10.82;7.70;;;;;;;;;;5073657;28;20044;-72
2023/08/06 07:54:42;;;;;;;9.45;7.07;;;;;;;;;;5073640;28;20052;-72
2023/08/06 07:57:10;;;;;;;8.00;4.97;;;;;;;;;;5073352;28;20591;-71
2023/08/06 07:59:37;;;;;;;7.30;4.45;;;;;;;;;;5073326;28;20052;-71
2023/08/06 08:02:05;;;;;;;8.38;5.03;;;;;;;;;;5073336;28;20524;-72
2023/08/06 08:04:33;;;;;;;10.43;6.45;;;;;;;;;;5073375;28;20406;-72
2023/08/06 08:07:00;;;;;;;8.77;5.00;;;;;;;;;;5073354;28;20044;-72
2023/08/06 08:09:28;;;;;;;8.30;5.20;;;;;;;;;;5073203;28;20044;-72
2023/08/06 08:11:56;;;;;;;11.77;8.15;;;;;;;;;;5073357;28;20115;-72
2023/08/06 08:14:28;;;;;;;10.65;6.43;;;;;;;;;;5056487;28;20389;-73
2023/08/06 08:16:56;;;;;;;13.20;8.38;;;;;;;;;;5073121;28;20033;-72
2023/08/06 08:19:23;;;;;;;12.65;7.03;;;;;;;;;;5073310;28;20055;-73
2023/08/06 08:21:51;;;;;;;12.48;6.40;;;;;;;;;;5073427;28;20396;-72
2023/08/06 08:24:19;;;;;;;9.90;6.40;;;;;;;;;;5072907;28;20127;-72
2023/08/06 08:26:47;;;;;;;13.27;6.03;;;;;;;;;;5072465;28;20397;-72
2023/08/06 08:29:14;;;;;;;13.95;11.05;;;;;;;;;;5072962;28;20040;-72
2023/08/06 08:31:43;;;;;;;9.82;6.25;;;;;;;;;;5073068;28;20036;-72
2023/08/06 08:34:10;;;;;;;23.27;18.48;;;;;;;;;;5072849;28;20063;-72
2023/08/06 08:36:38;;;;;;;10.30;5.47;;;;;;;;;;5072875;28;20407;-72
2023/08/06 08:39:05;;;;;;;12.70;6.25;;;;;;;;;;5073040;28;20044;-73
2023/08/06 08:41:34;;;;;;;16.40;9.43;;;;;;;;;;5072819;28;20032;-73
2023/08/06 08:44:02;;;;;;;11.18;7.03;;;;;;;;;;5072418;28;20047;-71
2023/08/06 08:46:33;;;;;;;14.23;9.20;;;;;;;;;;5072671;28;20041;-74
2023/08/06 08:49:02;;;;;;;25.80;18.45;;;;;;;;;;5072561;28;20045;-74
2023/08/06 08:51:31;;;;;;;16.52;13.35;;;;;;;;;;5072624;28;20037;-73
2023/08/06 08:53:58;;;;;;;42.88;28.17;;;;;;;;;;5072006;28;20072;-76
2023/08/06 08:56:26;;;;;;;14.27;8.82;;;;;;;;;;5072003;28;20533;-77
2023/08/06 08:58:55;;;;;;;18.98;7.45;;;;;;;;;;5050960;28;20498;-74
2023/08/06 09:01:22;;;;;;;22.20;13.88;;;;;;;;;;5052365;28;20509;-74
2023/08/06 09:03:54;;;;;;;11.00;5.82;;;;;;;;;;5052566;28;20061;-74
2023/08/06 09:06:22;;;;;;;17.40;6.47;;;;;;;;;;5051193;28;20041;-73
2023/08/06 09:09:07;;;;;;;11.98;6.10;;;;;;;;;;5050633;28;20045;-72
2023/08/06 09:11:39;;;;;;;;;;;;;;;;;;5050800;28;20041;-73
2023/08/06 09:14:10;;;;;;;27.02;17.98;;;;;;;;;;5049313;28;19920;-73
2023/08/06 09:16:37;;;;;;;70.22;45.97;;;;;;;;;;5050518;28;20041;-72
2023/08/06 09:19:09;;;;;;;11.60;6.00;;;;;;;;;;5051907;28;20037;-72
2023/08/06 09:21:38;;;;;;;13.95;6.82;;;;;;;;;;5037650;28;20045;-71
2023/08/06 09:24:12;;;;;;;13.38;6.22;;;;;;;;;;5042289;28;20091;-71
2023/08/06 09:26:41;;;;;;;14.55;7.18;;;;;;;;;;5040780;28;20147;-72
2023/08/06 09:29:11;;;;;;;10.75;7.13;;;;;;;;;;5043463;28;20402;-72
2023/08/06 09:31:45;;;;;;;12.82;6.80;;;;;;;;;;5042102;28;20112;-72
2023/08/06 09:34:18;;;;;;;10.63;6.90;;;;;;;;;;5038390;28;20575;-73
2023/08/06 09:36:53;;;;;;;14.20;8.50;;;;;;;;;;5048474;28;20045;-72
2023/08/06 09:39:38;;;;;;;11.43;7.70;;;;;;;;;;5055698;28;20424;-72
2023/08/06 09:42:06;;;;;;;9.82;7.55;;;;;;;;;;5039288;28;20091;-71
2023/08/06 09:44:34;;;;;;;16.23;11.40;;;;;;;;;;5034915;28;20038;-72
2023/08/06 09:47:04;;;;;;;11.93;8.18;;;;;;;;;;5055228;28;20029;-70
2023/08/06 09:49:37;;;;;;;11.40;7.50;;;;;;;;;;5044136;28;20056;-73
2023/08/06 09:52:05;;;;;;;11.20;8.82;;;;;;;;;;5044322;28;20041;-73
2023/08/06 09:54:33;;;;;;;11.82;9.30;;;;;;;;;;5034789;28;20186;-73
2023/08/06 09:57:00;;;;;;;12.82;9.15;;;;;;;;;;5037476;28;20041;-73
2023/08/06 09:59:29;;;;;;;245.63;46.88;;;;;;;;;;5045490;28;20486;-71
2023/08/06 10:01:56;;;;;;;21.25;10.93;;;;;;;;;;5068333;28;20041;-73
2023/08/06 10:04:24;;;;;;;98.18;27.48;;;;;;;;;;5061077;28;20041;-73
2023/08/06 10:06:57;;;;;;;185.40;49.35;;;;;;;;;;5070975;28;20476;-73
2023/08/06 10:09:28;;;;;;;20.52;11.52;;;;;;;;;;5071453;28;20058;-73
2023/08/06 10:11:56;;;;;;;15.60;8.75;;;;;;;;;;5039679;28;20045;-74
2023/08/06 10:14:30;;;;;;;17.13;9.90;;;;;;;;;;5071709;28;20044;-73
2023/08/06 10:16:58;;;;;;;39.95;14.68;;;;;;;;;;5053718;28;20640;-74
2023/08/06 10:19:26;;;;;;;11.23;9.82;;;;;;;;;;5071059;28;20048;-73
2023/08/06 10:22:12;;;;;;;11.10;9.98;;;;;;;;;;5072809;28;20128;-73
2023/08/06 10:24:47;;;;;;;13.68;10.43;;;;;;;;;;5072472;28;20065;-72
2023/08/06 10:27:14;;;;;;;;;;;;;;;;;;5071600;28;20451;-72
2023/08/06 10:29:42;;;;;;;13.60;9.48;;;;;;;;;;5059243;28;20282;-72
2023/08/06 10:32:09;;;;;;;12.15;8.98;;;;;;;;;;5072491;28;20072;-72
2023/08/06 10:35:00;;;;;;;10.20;8.88;;;;;;;;;;5072300;28;20040;-73
2023/08/06 10:37:37;;;;;;;10.48;9.38;;;;;;;;;;5072128;28;20116;-72
2023/08/06 10:40:07;;;;;;;12.07;9.75;;;;;;;;;;5054769;28;20066;-72
2023/08/06 10:42:36;;;;;;;10.23;9.10;;;;;;;;;;5071829;28;20044;-72
2023/08/06 10:45:17;;;;;;;9.93;8.75;;;;;;;;;;5072206;28;20045;-70
2023/08/06 10:47:45;;;;;;;11.57;8.75;;;;;;;;;;5071787;28;20040;-71
2023/08/06 10:50:14;;;;;;;8.75;7.78;;;;;;;;;;5071395;28;20040;-71
2023/08/06 10:52:41;;;;;;;10.32;7.15;;;;;;;;;;5071727;28;20072;-71
2023/08/06 10:55:09;;;;;;;9.00;7.45;;;;;;;;;;5071648;28;20036;-74
2023/08/06 10:57:36;;;;;;;10.93;7.57;;;;;;;;;;5065200;28;20055;-72
2023/08/06 11:00:08;;;;;;;8.85;7.53;;;;;;;;;;5065931;28;20040;-72
2023/08/06 11:02:44;;;;;;;14.48;9.10;;;;;;;;;;5055896;28;20120;-73
2023/08/06 11:05:12;;;;;;;8.13;6.55;;;;;;;;;;5056161;28;20111;-73
2023/08/06 11:07:39;;;;;;;8.30;7.18;;;;;;;;;;5071013;28;20106;-72
2023/08/06 11:10:08;;;;;;;15.15;8.50;;;;;;;;;;5071557;28;20040;-72
2023/08/06 11:12:35;;;;;;;8.07;6.70;;;;;;;;;;5071647;28;20128;-72
2023/08/06 11:15:04;;;;;;;6.40;5.68;;;;;;;;;;5071462;28;20842;-73
2023/08/06 11:17:33;;;;;;;8.38;6.40;;;;;;;;;;5071251;28;20474;-74
2023/08/06 11:20:01;;;;;;;8.40;6.35;;;;;;;;;;5071199;28;20044;-71
2023/08/06 11:22:29;;;;;;;8.88;6.65;;;;;;;;;;5071707;28;20141;-72
2023/08/06 11:24:57;;;;;;;7.15;6.43;;;;;;;;;;5053387;28;20766;-73
2023/08/06 11:27:27;;;;;;;9.13;7.10;;;;;;;;;;5071536;28;20386;-74
2023/08/06 11:29:54;;;;;;;9.63;7.53;;;;;;;;;;5070700;28;20041;-74
2023/08/06 11:32:25;;;;;;;7.95;7.15;;;;;;;;;;5071265;28;20040;-73
2023/08/06 11:34:55;;;;;;;8.55;7.30;;;;;;;;;;5071036;28;20040;-71
2023/08/06 11:37:26;;;;;;;9.88;7.32;;;;;;;;;;5071080;28;20068;-67
2023/08/06 11:39:53;;;;;;;7.93;7.10;;;;;;;;;;5071025;28;20066;-73
2023/08/06 11:42:21;;;;;;;7.10;6.40;;;;;;;;;;5052849;28;20044;-73
2023/08/06 11:44:50;;;;;;;7.15;6.38;;;;;;;;;;5064905;28;20111;-74
2023/08/06 11:47:18;;;;;;;6.25;5.65;;;;;;;;;;5070200;28;20070;-74
2023/08/06 11:49:47;;;;;;;6.15;5.55;;;;;;;;;;5066295;28;20045;-73
2023/08/06 11:52:18;;;;;;;6.18;5.40;;;;;;;;;;5047979;28;20040;-74
2023/08/06 11:55:06;;;;;;;5.80;4.90;;;;;;;;;;5070518;28;20054;-73
2023/08/06 11:57:37;;;;;;;5.80;4.95;;;;;;;;;;5070420;28;20106;-75
2023/08/06 12:00:06;;;;;;;6.05;4.18;;;;;;;;;;5069706;28;20071;-74
2023/08/06 12:02:43;;;;;;;6.13;4.47;;;;;;;;;;5058627;28;20041;-72
2023/08/06 12:05:11;;;;;;;6.25;4.38;;;;;;;;;;5068487;28;20041;-75
2023/08/06 12:07:42;;;;;;;7.03;4.50;;;;;;;;;;5069813;28;20120;-73
2023/08/06 12:10:09;;;;;;;5.47;4.28;;;;;;;;;;5070437;28;20066;-73
2023/08/06 12:12:38;;;;;;;5.30;3.92;;;;;;;;;;5070349;28;20045;-74
2023/08/06 12:15:07;;;;;;;4.90;4.40;;;;;;;;;;5070293;28;20041;-73
2023/08/06 12:17:35;;;;;;;5.72;4.40;;;;;;;;;;5070255;28;20055;-72
2023/08/06 12:20:04;;;;;;;5.18;4.22;;;;;;;;;;5070156;28;20044;-73
2023/08/06 12:22:35;;;;;;;4.65;4.10;;;;;;;;;;5070290;28;20129;-74
2023/08/06 12:25:03;;;;;;;5.03;4.13;;;;;;;;;;5070131;28;20043;-75
2023/08/06 12:27:31;;;;;;;5.63;3.97;;;;;;;;;;5052303;28;20055;-73
2023/08/06 12:29:58;;;;;;;5.43;4.20;;;;;;;;;;5070012;28;20036;-74
2023/08/06 12:32:26;;;;;;;5.03;4.50;;;;;;;;;;5069964;28;20449;-75
2023/08/06 12:34:54;;;;;;;6.80;4.80;;;;;;;;;;5070034;28;20587;-73
2023/08/06 12:37:22;;;;;;;5.78;4.45;;;;;;;;;;5052198;28;20037;-75
2023/08/06 12:39:50;;;;;;;4.80;4.40;;;;;;;;;;5044760;28;20052;-73
2023/08/06 12:42:17;;;;;;;4.93;4.43;;;;;;;;;;5056974;28;20043;-75
2023/08/06 12:44:45;;;;;;;4.50;4.10;;;;;;;;;;5051538;28;20505;-73
2023/08/06 12:47:12;;;;;;;6.07;4.30;;;;;;;;;;5052545;28;20040;-73
2023/08/06 12:49:40;;;;;;;4.40;4.00;;;;;;;;;;5060574;28;20037;-72
2023/08/06 12:52:09;;;;;;;4.05;3.67;;;;;;;;;;5055515;28;20049;-72
2023/08/06 12:54:36;;;;;;;5.13;4.20;;;;;;;;;;5052993;28;20078;-72
2023/08/06 12:57:05;;;;;;;4.10;3.70;;;;;;;;;;5043401;28;20508;-73
2023/08/06 12:59:36;;;;;;;4.00;3.60;;;;;;;;;;5054354;28;20055;-72
2023/08/06 13:02:04;;;;;;;4.22;3.83;;;;;;;;;;5041439;28;20155;-73
2023/08/06 13:04:33;;;;;;;4.57;3.50;;;;;;;;;;5059174;28;20048;-73
2023/08/06 13:07:01;;;;;;;4.40;3.83;;;;;;;;;;5059892;28;20494;-72
2023/08/06 13:09:30;;;;;;;6.15;3.92;;;;;;;;;;5054901;28;20036;-72
2023/08/06 13:12:00;;;;;;;3.75;3.38;;;;;;;;;;5051514;28;20044;-73
2023/08/06 13:14:28;;;;;;;3.47;3.05;;;;;;;;;;5047140;28;20041;-71
2023/08/06 13:16:56;;;;;;;6.25;3.90;;;;;;;;;;5048965;28;20136;-72
2023/08/06 13:19:24;;;;;;;4.72;3.85;;;;;;;;;;5052339;28;20132;-74
2023/08/06 13:21:51;;;;;;;3.95;3.60;;;;;;;;;;5047757;28;20514;-73
2023/08/06 13:24:20;;;;;;;4.55;3.80;;;;;;;;;;5046377;28;20493;-73
2023/08/06 13:26:47;;;;;;;3.70;3.30;;;;;;;;;;5059890;28;20616;-72
2023/08/06 13:29:15;;;;;;;3.65;3.25;;;;;;;;;;5046958;28;20045;-73
2023/08/06 13:31:42;;;;;;;6.65;3.40;;;;;;;;;;5028499;28;20037;-73
2023/08/06 13:34:10;;;;;;;4.28;3.88;;;;;;;;;;5028038;28;20052;-73
2023/08/06 13:36:37;;;;;;;6.28;3.58;;;;;;;;;;5049366;28;20037;-72
2023/08/06 13:39:05;;;;;;;5.15;4.30;;;;;;;;;;5046809;28;20049;-72
2023/08/06 13:41:33;;;;;;;5.10;3.53;;;;;;;;;;5052189;28;20036;-74
2023/08/06 13:44:00;;;;;;;4.03;3.53;;;;;;;;;;5040992;28;20056;-72
2023/08/06 13:46:28;;;;;;;4.43;3.20;;;;;;;;;;5049009;28;20044;-73
2023/08/06 13:48:58;;;;;;;3.08;2.63;;;;;;;;;;5051038;28;20451;-71
2023/08/06 13:51:26;;;;;;;3.88;3.30;;;;;;;;;;5058631;28;20436;-74
2023/08/06 13:53:54;;;;;;;3.88;2.80;;;;;;;;;;5037395;28;20390;-72
2023/08/06 13:56:23;;;;;;;3.10;2.80;;;;;;;;;;5049464;28;20041;-71
2023/08/06 13:58:51;;;;;;;3.45;3.05;;;;;;;;;;5052799;28;20405;-72
2023/08/06 14:01:18;;;;;;;4.35;2.97;;;;;;;;;;5060909;28;20128;-71
2023/08/06 14:03:46;;;;;;;3.88;2.70;;;;;;;;;;5034968;28;20094;-73
2023/08/06 14:06:14;;;;;;;4.32;3.22;;;;;;;;;;5054960;28;20450;-73
2023/08/06 14:08:41;;;;;;;4.00;3.58;;;;;;;;;;5058319;28;20393;-71
2023/08/06 14:11:10;;;;;;;4.13;3.30;;;;;;;;;;5055849;28;20119;-72
2023/08/06 14:13:37;;;;;;;3.75;2.75;;;;;;;;;;5050672;28;20048;-73
2023/08/06 14:16:05;;;;;;;10.18;6.95;;;;;;;;;;5052542;28;20421;-74
2023/08/06 14:18:33;;;;;;;10.13;6.80;;;;;;;;;;5046870;28;20041;-72
2023/08/06 14:21:01;;;;;;;3.88;3.22;;;;;;;;;;5050456;28;20065;-73
2023/08/06 14:23:28;;;;;;;3.50;2.78;;;;;;;;;;5050795;28;20041;-73
2023/08/06 14:25:56;;;;;;;4.03;2.88;;;;;;;;;;5043063;28;20443;-72
2023/08/06 14:28:23;;;;;;;4.85;3.00;;;;;;;;;;5063728;28;20401;-73
2023/08/06 14:30:53;;;;;;;3.55;2.85;;;;;;;;;;5063867;28;20462;-73
2023/08/06 14:33:24;;;;;;;4.45;3.05;;;;;;;;;;5056349;28;20484;-72
2023/08/06 14:35:54;;;;;;;4.35;3.15;;;;;;;;;;5060684;28;20048;-73
2023/08/06 14:38:21;;;;;;;4.10;3.08;;;;;;;;;;5039604;28;20049;-73
2023/08/06 14:40:49;;;;;;;4.65;2.67;;;;;;;;;;5055065;28;20577;-73
2023/08/06 14:43:17;;;;;;;4.22;2.90;;;;;;;;;;5054353;28;20131;-73
2023/08/06 14:45:45;;;;;;;2.78;2.50;;;;;;;;;;5056148;28;20107;-73
2023/08/06 14:48:13;;;;;;;3.17;2.83;;;;;;;;;;5055280;28;20052;-72